DAL6707 KATL-KBHM
Flight info
| Callsign | DAL6707 |
|---|---|
| Flight time | 0h 30m |
| Altitude | 14000 |
| Route | NASSA2 NASSA KIOSK |
| Aircraft | A320/M-SDE3FGHIRWY/LB1 |
Departure
| Time | 2026-04-17 00:24 |
|---|---|
| Airport | Hartsfield Jackson Atlanta International Airport (KATL) |
Arrival
| Time | 2026-04-17 00:54 |
|---|---|
| Airport | Birmingham-Shuttlesworth International Airport (KBHM) |
| Time | Latitude | Longitude | Altitude | Speed | Heading |
|---|---|---|---|---|---|
| 2026-04-16 23:39 | 33.63738 | -84.44194 | 1010 ft | 0 kts | 270° |
| 2026-04-17 00:08 | 33.63738 | -84.44211 | 1009 ft | 0 kts | 270° |
| 2026-04-17 00:08 | 33.63738 | -84.44204 | 1010 ft | 2 kts | 270° |
| 2026-04-17 00:08 | 33.63738 | -84.44186 | 1010 ft | 2 kts | 264° |
| 2026-04-17 00:09 | 33.63741 | -84.44166 | 1009 ft | 2 kts | 257° |
| 2026-04-17 00:09 | 33.63746 | -84.44148 | 1010 ft | 2 kts | 239° |
| 2026-04-17 00:09 | 33.63758 | -84.44136 | 1009 ft | 2 kts | 202° |
| 2026-04-17 00:09 | 33.63774 | -84.44128 | 1009 ft | 2 kts | 202° |
| 2026-04-17 00:10 | 33.63789 | -84.44121 | 1009 ft | 2 kts | 207° |
| 2026-04-17 00:10 | 33.63802 | -84.44113 | 1009 ft | 0 kts | 187° |
| 2026-04-17 00:15 | 33.63799 | -84.44112 | 1009 ft | 4 kts | 168° |
| 2026-04-17 00:15 | 33.63816 | -84.44078 | 1009 ft | 16 kts | 32° |
| 2026-04-17 00:16 | 33.63945 | -84.44051 | 1009 ft | 19 kts | 1° |
| 2026-04-17 00:16 | 33.64072 | -84.44048 | 1009 ft | 18 kts | 0° |
| 2026-04-17 00:16 | 33.64202 | -84.44050 | 1009 ft | 19 kts | 359° |
| 2026-04-17 00:16 | 33.64334 | -84.44048 | 1009 ft | 19 kts | 0° |
| 2026-04-17 00:17 | 33.64428 | -84.43979 | 1009 ft | 15 kts | 77° |
| 2026-04-17 00:17 | 33.64444 | -84.43849 | 1009 ft | 17 kts | 82° |
| 2026-04-17 00:17 | 33.64457 | -84.43708 | 1009 ft | 17 kts | 87° |
| 2026-04-17 00:17 | 33.64458 | -84.43612 | 1009 ft | 15 kts | 89° |
| 2026-04-17 00:18 | 33.64459 | -84.43457 | 1009 ft | 19 kts | 90° |
| 2026-04-17 00:18 | 33.64460 | -84.43307 | 1010 ft | 4 kts | 89° |
| 2026-04-17 00:18 | 33.64460 | -84.43281 | 1010 ft | 3 kts | 89° |
| 2026-04-17 00:18 | 33.64460 | -84.43250 | 1010 ft | 5 kts | 89° |
| 2026-04-17 00:19 | 33.64460 | -84.43189 | 1010 ft | 14 kts | 91° |
| 2026-04-17 00:19 | 33.64459 | -84.43025 | 1010 ft | 21 kts | 90° |
| 2026-04-17 00:19 | 33.64459 | -84.42846 | 1009 ft | 22 kts | 90° |
| 2026-04-17 00:19 | 33.64468 | -84.42666 | 1009 ft | 22 kts | 89° |
| 2026-04-17 00:20 | 33.64468 | -84.42481 | 1009 ft | 22 kts | 90° |
| 2026-04-17 00:20 | 33.64469 | -84.42292 | 1009 ft | 23 kts | 86° |
| 2026-04-17 00:20 | 33.64531 | -84.42129 | 1009 ft | 17 kts | 64° |
| 2026-04-17 00:20 | 33.64541 | -84.41987 | 1009 ft | 18 kts | 90° |
| 2026-04-17 00:21 | 33.64541 | -84.41819 | 1009 ft | 21 kts | 89° |
| 2026-04-17 00:21 | 33.64542 | -84.41617 | 1010 ft | 30 kts | 90° |
| 2026-04-17 00:21 | 33.64541 | -84.41344 | 1010 ft | 34 kts | 90° |
| 2026-04-17 00:21 | 33.64541 | -84.41061 | 1010 ft | 34 kts | 91° |
| 2026-04-17 00:22 | 33.64589 | -84.40574 | 1008 ft | 0 kts | 36° |
| 2026-04-17 00:22 | 33.64590 | -84.40574 | 1008 ft | 1 kts | 27° |
| 2026-04-17 00:23 | 33.64683 | -84.40569 | 1007 ft | 3 kts | 339° |
| 2026-04-17 00:23 | 33.64690 | -84.40580 | 1007 ft | 3 kts | 268° |
| 2026-04-17 00:23 | 33.64679 | -84.40674 | 1007 ft | 0 kts | 272° |
| 2026-04-17 00:23 | 33.64681 | -84.40722 | 1007 ft | 31 kts | 271° |
| 2026-04-17 00:24 | 33.64680 | -84.41361 | 1012 ft | 123 kts | 270° |
| 2026-04-17 00:24 | 33.64684 | -84.42736 | 1149 ft | 190 kts | 268° |
| 2026-04-17 00:24 | 33.64704 | -84.44301 | 2201 ft | 186 kts | 269° |
| 2026-04-17 00:24 | 33.64740 | -84.45851 | 3359 ft | 185 kts | 270° |
| 2026-04-17 00:25 | 33.64797 | -84.47394 | 4494 ft | 184 kts | 272° |
| 2026-04-17 00:25 | 33.64890 | -84.48903 | 5568 ft | 180 kts | 275° |
| 2026-04-17 00:25 | 33.64993 | -84.50401 | 6610 ft | 179 kts | 274° |
| 2026-04-17 00:25 | 33.65068 | -84.51887 | 7593 ft | 178 kts | 272° |
| 2026-04-17 00:26 | 33.65119 | -84.53355 | 8608 ft | 174 kts | 271° |
| 2026-04-17 00:26 | 33.65196 | -84.54783 | 9653 ft | 168 kts | 272° |
| 2026-04-17 00:26 | 33.65313 | -84.56151 | 10633 ft | 161 kts | 274° |
| 2026-04-17 00:26 | 33.65478 | -84.57453 | 11515 ft | 152 kts | 277° |
| 2026-04-17 00:27 | 33.65654 | -84.58682 | 12257 ft | 148 kts | 277° |
| 2026-04-17 00:27 | 33.65838 | -84.59912 | 12885 ft | 156 kts | 277° |
| 2026-04-17 00:27 | 33.66000 | -84.61244 | 13385 ft | 168 kts | 274° |
| 2026-04-17 00:27 | 33.66103 | -84.62735 | 13661 ft | 185 kts | 273° |
| 2026-04-17 00:28 | 33.66206 | -84.64327 | 13909 ft | 202 kts | 273° |
| 2026-04-17 00:28 | 33.66319 | -84.66080 | 14072 ft | 221 kts | 273° |
| 2026-04-17 00:28 | 33.66444 | -84.68026 | 14066 ft | 249 kts | 273° |
| 2026-04-17 00:28 | 33.66587 | -84.70239 | 14085 ft | 281 kts | 273° |
| 2026-04-17 00:29 | 33.66746 | -84.72702 | 14096 ft | 311 kts | 273° |
| 2026-04-17 00:29 | 33.66923 | -84.75415 | 14093 ft | 339 kts | 273° |
| 2026-04-17 00:29 | 33.67115 | -84.78333 | 14091 ft | 362 kts | 273° |
| 2026-04-17 00:29 | 33.67320 | -84.81437 | 14106 ft | 383 kts | 274° |
| 2026-04-17 00:30 | 33.67536 | -84.84697 | 14109 ft | 400 kts | 274° |
| 2026-04-17 00:30 | 33.67763 | -84.88089 | 14310 ft | 404 kts | 274° |
| 2026-04-17 00:30 | 33.67978 | -84.91239 | 15348 ft | 353 kts | 273° |
| 2026-04-17 00:30 | 33.68181 | -84.94148 | 16181 ft | 352 kts | 273° |
| 2026-04-17 00:31 | 33.68387 | -84.97108 | 17074 ft | 359 kts | 272° |
| 2026-04-17 00:31 | 33.68595 | -85.00111 | 18010 ft | 363 kts | 272° |
| 2026-04-17 00:31 | 33.68800 | -85.03094 | 18885 ft | 365 kts | 272° |
| 2026-04-17 00:31 | 33.69010 | -85.06142 | 19748 ft | 366 kts | 272° |
| 2026-04-17 00:32 | 33.69195 | -85.09185 | 20624 ft | 365 kts | 271° |
| 2026-04-17 00:32 | 33.69353 | -85.12233 | 21527 ft | 365 kts | 271° |
| 2026-04-17 00:32 | 33.69510 | -85.15268 | 22448 ft | 364 kts | 271° |
| 2026-04-17 00:32 | 33.69668 | -85.18288 | 23386 ft | 361 kts | 271° |
| 2026-04-17 00:33 | 33.69826 | -85.21264 | 24208 ft | 352 kts | 271° |
| 2026-04-17 00:33 | 33.69983 | -85.24196 | 24962 ft | 349 kts | 271° |
| 2026-04-17 00:33 | 33.70139 | -85.27099 | 25713 ft | 347 kts | 271° |
| 2026-04-17 00:33 | 33.70295 | -85.29990 | 26456 ft | 345 kts | 271° |
| 2026-04-17 00:34 | 33.70448 | -85.32817 | 27147 ft | 343 kts | 271° |
| 2026-04-17 00:34 | 33.70603 | -85.35667 | 27887 ft | 340 kts | 271° |
| 2026-04-17 00:34 | 33.70757 | -85.38487 | 28615 ft | 337 kts | 271° |
| 2026-04-17 00:34 | 33.70912 | -85.41282 | 29336 ft | 334 kts | 271° |
| 2026-04-17 00:35 | 33.71066 | -85.44053 | 30052 ft | 331 kts | 272° |
| 2026-04-17 00:35 | 33.71220 | -85.46807 | 30659 ft | 329 kts | 271° |
| 2026-04-17 00:35 | 33.71374 | -85.49534 | 31237 ft | 326 kts | 271° |
| 2026-04-17 00:35 | 33.71528 | -85.52245 | 31753 ft | 325 kts | 271° |
| 2026-04-17 00:36 | 33.71681 | -85.54968 | 32107 ft | 329 kts | 271° |
| 2026-04-17 00:36 | 33.71835 | -85.57722 | 32460 ft | 331 kts | 271° |
| 2026-04-17 00:36 | 33.71989 | -85.60497 | 32829 ft | 334 kts | 271° |
| 2026-04-17 00:36 | 33.72142 | -85.63287 | 33201 ft | 334 kts | 271° |
| 2026-04-17 00:37 | 33.72296 | -85.66055 | 33510 ft | 334 kts | 270° |
| 2026-04-17 00:37 | 33.72448 | -85.68896 | 33446 ft | 347 kts | 270° |
| 2026-04-17 00:37 | 33.72746 | -85.74658 | 33311 ft | 334 kts | 270° |
| 2026-04-17 00:38 | 33.72889 | -85.77356 | 33218 ft | 322 kts | 270° |
| 2026-04-17 00:38 | 33.73042 | -85.79992 | 33104 ft | 311 kts | 271° |
| 2026-04-17 00:38 | 33.73036 | -85.82542 | 32840 ft | 301 kts | 262° |
| 2026-04-17 00:38 | 33.72654 | -85.84981 | 32574 ft | 294 kts | 257° |
| 2026-04-17 00:39 | 33.72121 | -85.87324 | 32314 ft | 288 kts | 254° |
| 2026-04-17 00:39 | 33.71502 | -85.89584 | 32039 ft | 283 kts | 253° |
| 2026-04-17 00:39 | 33.70877 | -85.91822 | 31544 ft | 284 kts | 253° |
| 2026-04-17 00:39 | 33.70247 | -85.94087 | 31012 ft | 287 kts | 253° |
| 2026-04-17 00:40 | 33.69614 | -85.96368 | 30497 ft | 289 kts | 254° |
| 2026-04-17 00:40 | 33.68977 | -85.98674 | 29804 ft | 293 kts | 254° |
| 2026-04-17 00:40 | 33.68381 | -86.01032 | 28866 ft | 298 kts | 256° |
| 2026-04-17 00:40 | 33.67879 | -86.03514 | 27392 ft | 316 kts | 258° |
| 2026-04-17 00:41 | 33.67467 | -86.06186 | 26011 ft | 333 kts | 260° |
| 2026-04-17 00:41 | 33.67097 | -86.08990 | 24623 ft | 348 kts | 261° |
| 2026-04-17 00:41 | 33.66756 | -86.11917 | 23175 ft | 360 kts | 262° |
| 2026-04-17 00:41 | 33.66487 | -86.14952 | 21659 ft | 369 kts | 264° |
| 2026-04-17 00:42 | 33.66368 | -86.18014 | 20359 ft | 374 kts | 267° |
| 2026-04-17 00:42 | 33.66456 | -86.21138 | 19362 ft | 373 kts | 276° |
| 2026-04-17 00:42 | 33.67276 | -86.24049 | 18655 ft | 369 kts | 295° |
| 2026-04-17 00:42 | 33.68890 | -86.26424 | 17988 ft | 369 kts | 313° |
| 2026-04-17 00:43 | 33.70940 | -86.28240 | 17305 ft | 361 kts | 319° |
| 2026-04-17 00:43 | 33.73006 | -86.29906 | 16618 ft | 353 kts | 321° |
| 2026-04-17 00:43 | 33.75045 | -86.31492 | 15968 ft | 345 kts | 321° |
| 2026-04-17 00:43 | 33.77038 | -86.33042 | 15339 ft | 338 kts | 321° |
| 2026-04-17 00:44 | 33.78989 | -86.34561 | 14733 ft | 330 kts | 321° |
| 2026-04-17 00:44 | 33.80885 | -86.36094 | 14007 ft | 326 kts | 320° |
| 2026-04-17 00:44 | 33.82744 | -86.37687 | 12975 ft | 329 kts | 319° |
| 2026-04-17 00:44 | 33.84590 | -86.39362 | 11770 ft | 337 kts | 319° |
| 2026-04-17 00:45 | 33.86441 | -86.41144 | 10601 ft | 343 kts | 317° |
| 2026-04-17 00:45 | 33.87918 | -86.43383 | 9490 ft | 342 kts | 295° |
| 2026-04-17 00:45 | 33.88468 | -86.46062 | 8519 ft | 331 kts | 274° |
| 2026-04-17 00:45 | 33.88388 | -86.48777 | 7773 ft | 316 kts | 265° |
| 2026-04-17 00:46 | 33.88137 | -86.51324 | 7256 ft | 298 kts | 262° |
| 2026-04-17 00:46 | 33.87812 | -86.53768 | 6571 ft | 294 kts | 261° |
| 2026-04-17 00:46 | 33.87408 | -86.56169 | 5872 ft | 291 kts | 251° |
| 2026-04-17 00:46 | 33.86311 | -86.58125 | 5461 ft | 280 kts | 219° |
| 2026-04-17 00:47 | 33.84556 | -86.58929 | 5116 ft | 271 kts | 183° |
| 2026-04-17 00:47 | 33.82743 | -86.58395 | 4676 ft | 269 kts | 155° |
| 2026-04-17 00:47 | 33.81214 | -86.57152 | 4305 ft | 261 kts | 143° |
| 2026-04-17 00:47 | 33.79789 | -86.55926 | 4016 ft | 244 kts | 150° |
| 2026-04-17 00:48 | 33.78378 | -86.54889 | 3747 ft | 231 kts | 152° |
| 2026-04-17 00:48 | 33.76990 | -86.54188 | 3621 ft | 208 kts | 178° |
| 2026-04-17 00:48 | 33.75625 | -86.54174 | 3551 ft | 188 kts | 184° |
| 2026-04-17 00:48 | 33.74342 | -86.54196 | 3353 ft | 183 kts | 184° |
| 2026-04-17 00:49 | 33.73062 | -86.54281 | 3152 ft | 191 kts | 192° |
| 2026-04-17 00:49 | 33.71772 | -86.54681 | 3017 ft | 187 kts | 202° |
| 2026-04-17 00:49 | 33.71012 | -86.55087 | 2966 ft | 175 kts | 212° |
| 2026-04-17 00:49 | 33.70024 | -86.55810 | 2808 ft | 160 kts | 215° |
| 2026-04-17 00:50 | 33.68991 | -86.56620 | 2646 ft | 187 kts | 217° |
| 2026-04-17 00:50 | 33.67917 | -86.57533 | 2551 ft | 184 kts | 219° |
| 2026-04-17 00:50 | 33.67019 | -86.58516 | 2583 ft | 166 kts | 229° |
| 2026-04-17 00:50 | 33.66249 | -86.59502 | 2450 ft | 165 kts | 229° |
| 2026-04-17 00:51 | 33.65375 | -86.60643 | 2424 ft | 189 kts | 229° |
| 2026-04-17 00:51 | 33.64538 | -86.61815 | 2256 ft | 186 kts | 232° |
| 2026-04-17 00:51 | 33.63731 | -86.63058 | 2036 ft | 191 kts | 235° |
| 2026-04-17 00:51 | 33.62987 | -86.64322 | 2112 ft | 179 kts | 236° |
| 2026-04-17 00:52 | 33.62259 | -86.65515 | 2064 ft | 176 kts | 235° |
| 2026-04-17 00:52 | 33.61542 | -86.66705 | 1880 ft | 177 kts | 237° |
| 2026-04-17 00:52 | 33.60863 | -86.67933 | 1733 ft | 169 kts | 236° |
| 2026-04-17 00:52 | 33.60226 | -86.69018 | 1611 ft | 151 kts | 235° |
| 2026-04-17 00:53 | 33.59610 | -86.70028 | 1449 ft | 161 kts | 236° |
| 2026-04-17 00:53 | 33.58975 | -86.71119 | 1279 ft | 158 kts | 234° |
| 2026-04-17 00:53 | 33.58339 | -86.72221 | 1052 ft | 161 kts | 232° |
| 2026-04-17 00:53 | 33.57681 | -86.73365 | 832 ft | 168 kts | 235° |
| 2026-04-17 00:54 | 33.57042 | -86.74475 | 643 ft | 159 kts | 235° |
| 2026-04-17 00:54 | 33.56523 | -86.75364 | 633 ft | 90 kts | 235° |
| 2026-04-17 00:54 | 33.56249 | -86.75800 | 636 ft | 47 kts | 220° |
| 2026-04-17 00:54 | 33.56143 | -86.75872 | 634 ft | 0 kts | 205° |
| 2026-04-17 00:55 | 33.56133 | -86.75877 | 631 ft | 3 kts | 204° |
| 2026-04-17 00:55 | 33.56117 | -86.75875 | 636 ft | 4 kts | 144° |
| 2026-04-17 00:55 | 33.56122 | -86.75841 | 629 ft | 7 kts | 63° |
| 2026-04-17 00:55 | 33.56186 | -86.75726 | 632 ft | 21 kts | 57° |
| 2026-04-17 00:56 | 33.56283 | -86.75560 | 638 ft | 25 kts | 55° |
| 2026-04-17 00:56 | 33.56334 | -86.75419 | 630 ft | 15 kts | 111° |
| 2026-04-17 00:56 | 33.56260 | -86.75346 | 629 ft | 12 kts | 130° |
| 2026-04-17 00:56 | 33.56245 | -86.75326 | 629 ft | 0 kts | 130° |